Time;durP1;ratioP1;P1;durP2;ratioP2;P2;SDS_P1;SDS_P2;PMS_P1;PMS_P2;Temp;Humidity;BMP_temperature;BMP_pressure;BME280_temperature;BME280_humidity;BME280_pressure;Samples;Min_cycle;Max_cycle;Signal;HPM_P1;HPM_P2
2021/08/16 00:01:01;;;;;;;9.23;7.00;;;;;;;;;;5017821;28;20200;-84
2021/08/16 00:04:05;;;;;;;11.03;6.43;;;;;;;;;;5018616;28;20232;-82
2021/08/16 00:07:09;;;;;;;12.90;7.03;;;;;;;;;;5027674;28;20196;-84
2021/08/16 00:10:15;;;;;;;9.57;6.17;;;;;;;;;;5019492;28;20528;-84
2021/08/16 00:13:20;;;;;;;15.00;6.57;;;;;;;;;;5054525;28;20208;-84
2021/08/16 00:16:24;;;;;;;15.43;6.40;;;;;;;;;;5013725;28;20195;-84
2021/08/16 00:19:29;;;;;;;12.47;6.83;;;;;;;;;;5041666;28;20180;-84
2021/08/16 00:22:34;;;;;;;10.50;7.00;;;;;;;;;;5041352;28;20704;-84
2021/08/16 00:25:38;;;;;;;10.23;6.73;;;;;;;;;;5025367;28;20199;-83
2021/08/16 00:28:42;;;;;;;10.03;7.07;;;;;;;;;;5029924;28;20226;-84
2021/08/16 00:31:47;;;;;;;14.47;6.80;;;;;;;;;;5029479;28;20195;-84
2021/08/16 00:34:51;;;;;;;10.53;7.93;;;;;;;;;;5029680;28;20192;-83
2021/08/16 00:37:55;;;;;;;12.47;6.00;;;;;;;;;;5030340;28;20253;-84
2021/08/16 00:41:00;;;;;;;10.33;6.70;;;;;;;;;;5018968;28;20205;-84
2021/08/16 00:44:06;;;;;;;12.90;7.43;;;;;;;;;;5020453;28;20706;-84
2021/08/16 00:47:11;;;;;;;13.47;7.40;;;;;;;;;;5033800;28;20195;-83
2021/08/16 00:50:15;;;;;;;12.20;7.00;;;;;;;;;;5022205;28;20203;-83
2021/08/16 00:53:19;;;;;;;14.30;6.57;;;;;;;;;;5033560;28;20226;-83
2021/08/16 00:56:26;;;;;;;11.70;6.67;;;;;;;;;;5019526;28;20192;-84
2021/08/16 00:59:32;;;;;;;11.27;6.93;;;;;;;;;;5016311;28;20188;-83
2021/08/16 01:02:42;;;;;;;10.73;6.97;;;;;;;;;;5037018;28;20256;-84
2021/08/16 01:05:46;;;;;;;8.93;6.70;;;;;;;;;;5028836;28;20199;-84
2021/08/16 01:08:51;;;;;;;15.23;6.33;;;;;;;;;;5014456;28;20208;-83
2021/08/16 01:11:56;;;;;;;10.43;7.40;;;;;;;;;;5026716;28;20186;-84
2021/08/16 01:15:01;;;;;;;8.47;6.33;;;;;;;;;;5032649;28;20198;-82
2021/08/16 01:18:05;;;;;;;15.90;9.03;;;;;;;;;;5012163;28;20668;-83
2021/08/16 01:21:13;;;;;;;13.73;8.47;;;;;;;;;;5020986;28;20191;-82
2021/08/16 01:24:18;;;;;;;20.90;8.10;;;;;;;;;;5019905;28;20238;-84
2021/08/16 01:27:22;;;;;;;11.27;6.43;;;;;;;;;;5033681;28;20192;-83
2021/08/16 01:30:26;;;;;;;10.63;7.10;;;;;;;;;;5022298;28;20684;-84
2021/08/16 01:33:32;;;;;;;14.20;7.50;;;;;;;;;;5021910;28;20228;-84
2021/08/16 01:36:37;;;;;;;17.67;8.20;;;;;;;;;;5021143;28;20200;-83
2021/08/16 01:39:41;;;;;;;9.80;7.60;;;;;;;;;;5022049;28;20192;-84
2021/08/16 01:42:45;;;;;;;14.73;8.80;;;;;;;;;;5032836;28;20219;-84
2021/08/16 01:45:50;;;;;;;15.07;8.77;;;;;;;;;;5044690;28;20208;-84
2021/08/16 01:48:54;;;;;;;14.37;7.93;;;;;;;;;;5032519;28;20221;-84
2021/08/16 01:51:58;;;;;;;12.20;7.87;;;;;;;;;;5044394;28;20187;-83
2021/08/16 01:55:04;;;;;;;14.47;8.30;;;;;;;;;;5015972;28;20199;-84
2021/08/16 01:58:10;;;;;;;17.33;8.73;;;;;;;;;;5013732;28;20204;-84
2021/08/16 02:01:14;;;;;;;17.70;9.90;;;;;;;;;;5045273;28;20543;-84
2021/08/16 02:04:18;;;;;;;14.37;8.73;;;;;;;;;;5032823;28;20236;-84
2021/08/16 02:07:22;;;;;;;13.20;10.67;;;;;;;;;;5031600;28;20211;-83
2021/08/16 02:10:26;;;;;;;12.47;9.77;;;;;;;;;;5032654;28;20195;-83
2021/08/16 02:13:30;;;;;;;17.37;10.77;;;;;;;;;;5021333;28;20230;-84
2021/08/16 02:16:35;;;;;;;16.20;9.90;;;;;;;;;;5032204;28;20203;-83
2021/08/16 02:19:39;;;;;;;17.43;11.50;;;;;;;;;;5021956;28;20650;-84
2021/08/16 02:22:43;;;;;;;16.50;10.13;;;;;;;;;;5020715;28;20231;-84
2021/08/16 02:25:47;;;;;;;20.63;11.70;;;;;;;;;;5020587;28;20203;-83
2021/08/16 02:28:51;;;;;;;17.50;11.90;;;;;;;;;;5031725;28;20215;-84
2021/08/16 02:31:56;;;;;;;17.80;10.60;;;;;;;;;;5033177;28;20718;-84
2021/08/16 02:34:59;;;;;;;17.20;11.57;;;;;;;;;;5043117;28;20195;-84
2021/08/16 02:38:03;;;;;;;17.03;10.90;;;;;;;;;;5042868;28;20191;-84
2021/08/16 02:41:08;;;;;;;17.33;9.27;;;;;;;;;;5032326;28;20183;-84
2021/08/16 02:44:12;;;;;;;18.63;12.13;;;;;;;;;;5032067;28;20218;-84
2021/08/16 02:47:16;;;;;;;13.17;10.13;;;;;;;;;;5024756;28;20207;-84
2021/08/16 02:50:21;;;;;;;14.93;10.13;;;;;;;;;;5043199;28;20227;-84
2021/08/16 02:53:25;;;;;;;14.73;10.00;;;;;;;;;;5039121;28;20415;-84
2021/08/16 02:56:29;;;;;;;13.47;9.53;;;;;;;;;;5018794;28;20191;-84
2021/08/16 02:59:33;;;;;;;16.10;9.83;;;;;;;;;;5031865;28;20187;-84
2021/08/16 03:02:37;;;;;;;14.30;9.53;;;;;;;;;;5066914;22;20739;-84
2021/08/16 03:05:42;;;;;;;14.47;8.93;;;;;;;;;;5002713;28;20216;-84
2021/08/16 03:08:46;;;;;;;14.00;8.63;;;;;;;;;;5018707;28;20212;-85
2021/08/16 03:11:50;;;;;;;16.90;7.97;;;;;;;;;;5004340;28;20642;-85
2021/08/16 03:14:54;;;;;;;14.53;8.43;;;;;;;;;;5019498;28;20250;-84
2021/08/16 03:18:00;;;;;;;14.83;8.30;;;;;;;;;;5010909;28;20207;-85
2021/08/16 03:21:03;;;;;;;13.23;8.30;;;;;;;;;;5030965;28;20208;-85
2021/08/16 03:24:08;;;;;;;15.97;9.03;;;;;;;;;;5029723;28;20226;-83
2021/08/16 03:27:12;;;;;;;17.73;8.77;;;;;;;;;;5030211;28;20677;-83
2021/08/16 03:30:16;;;;;;;19.33;10.07;;;;;;;;;;5030316;28;20207;-84
2021/08/16 03:33:20;;;;;;;17.63;9.93;;;;;;;;;;5022299;28;20231;-84
2021/08/16 03:36:24;;;;;;;19.23;11.23;;;;;;;;;;5051662;28;20212;-85
2021/08/16 03:39:28;;;;;;;17.40;10.73;;;;;;;;;;5022033;28;20203;-83
2021/08/16 03:42:33;;;;;;;16.23;10.77;;;;;;;;;;5041138;28;20203;-82
2021/08/16 03:45:37;;;;;;;17.57;10.47;;;;;;;;;;5021435;28;20195;-83
2021/08/16 03:48:40;;;;;;;16.33;9.20;;;;;;;;;;5029581;28;20218;-84
2021/08/16 03:51:45;;;;;;;17.83;11.20;;;;;;;;;;5041800;28;20199;-85
2021/08/16 03:54:49;;;;;;;19.77;12.17;;;;;;;;;;5018588;28;20240;-85
2021/08/16 03:57:53;;;;;;;17.43;11.13;;;;;;;;;;5009136;28;20188;-83
2021/08/16 04:00:58;;;;;;;19.03;9.43;;;;;;;;;;5007779;28;20199;-82
2021/08/16 04:04:02;;;;;;;16.37;10.90;;;;;;;;;;5028730;28;20613;-83
2021/08/16 04:07:06;;;;;;;16.57;11.17;;;;;;;;;;5017153;28;20199;-83
2021/08/16 04:10:12;;;;;;;21.03;11.93;;;;;;;;;;5027195;28;20219;-83
2021/08/16 04:13:17;;;;;;;14.43;9.30;;;;;;;;;;5030531;28;20223;-83
2021/08/16 04:16:22;;;;;;;17.13;8.80;;;;;;;;;;5029160;28;20218;-84
2021/08/16 04:19:26;;;;;;;17.53;10.63;;;;;;;;;;5029457;28;20701;-85
2021/08/16 04:22:30;;;;;;;19.73;11.30;;;;;;;;;;5031928;28;20191;-85
2021/08/16 04:25:34;;;;;;;20.37;10.67;;;;;;;;;;5045848;28;20195;-84
2021/08/16 04:28:39;;;;;;;18.03;11.37;;;;;;;;;;5025525;28;20203;-85
2021/08/16 04:31:43;;;;;;;17.03;10.87;;;;;;;;;;5040967;28;20191;-84
2021/08/16 04:34:47;;;;;;;18.00;10.43;;;;;;;;;;5007931;28;20236;-84
2021/08/16 04:37:51;;;;;;;14.27;9.87;;;;;;;;;;5024757;28;20214;-85
2021/08/16 04:40:55;;;;;;;18.77;10.67;;;;;;;;;;5039508;28;20199;-85
2021/08/16 04:44:00;;;;;;;14.67;10.37;;;;;;;;;;5040996;28;20231;-85
2021/08/16 04:47:04;;;;;;;14.73;11.07;;;;;;;;;;5017368;28;20202;-85
2021/08/16 04:50:08;;;;;;;14.10;10.07;;;;;;;;;;5030684;28;20211;-86
2021/08/16 04:53:12;;;;;;;19.70;11.00;;;;;;;;;;5039735;28;20230;-84
2021/08/16 04:56:16;;;;;;;23.57;11.87;;;;;;;;;;5029495;28;20206;-84
2021/08/16 04:59:21;;;;;;;20.00;12.20;;;;;;;;;;5017497;28;20199;-85
2021/08/16 05:02:25;;;;;;;15.33;10.60;;;;;;;;;;5019329;28;20218;-85
2021/08/16 05:05:32;;;;;;;16.70;10.63;;;;;;;;;;5030032;28;20183;-84
2021/08/16 05:08:36;;;;;;;19.17;10.93;;;;;;;;;;5018163;28;20223;-84
2021/08/16 05:11:41;;;;;;;15.23;10.67;;;;;;;;;;5036677;28;20203;-84
2021/08/16 05:14:45;;;;;;;18.87;11.23;;;;;;;;;;5039674;28;20230;-84
2021/08/16 05:17:50;;;;;;;20.27;12.07;;;;;;;;;;5020416;28;20191;-85
2021/08/16 05:20:56;;;;;;;17.80;11.80;;;;;;;;;;5040589;28;20204;-85
2021/08/16 05:24:00;;;;;;;20.87;10.77;;;;;;;;;;5026873;28;20235;-84
2021/08/16 05:27:04;;;;;;;20.93;11.00;;;;;;;;;;5018409;28;20190;-85
2021/08/16 05:30:09;;;;;;;18.13;10.10;;;;;;;;;;5037692;28;20693;-86
2021/08/16 05:33:13;;;;;;;24.43;11.30;;;;;;;;;;5044314;28;20223;-87
2021/08/16 05:36:17;;;;;;;17.93;12.00;;;;;;;;;;5033161;28;20269;-86
2021/08/16 05:39:21;;;;;;;13.70;10.93;;;;;;;;;;5053257;28;20214;-86
2021/08/16 05:42:25;;;;;;;14.70;11.40;;;;;;;;;;5007958;28;20275;-85
2021/08/16 05:45:29;;;;;;;17.90;11.30;;;;;;;;;;5016112;28;20551;-86
2021/08/16 05:48:33;;;;;;;20.80;11.33;;;;;;;;;;5035212;28;20199;-86
2021/08/16 05:51:37;;;;;;;18.80;11.80;;;;;;;;;;5019474;28;20199;-86
2021/08/16 05:54:41;;;;;;;15.27;11.30;;;;;;;;;;5043439;28;20578;-85
2021/08/16 05:57:46;;;;;;;16.00;11.23;;;;;;;;;;5023886;28;20706;-85
2021/08/16 06:00:51;;;;;;;17.80;12.63;;;;;;;;;;5004142;28;20183;-85
2021/08/16 06:03:55;;;;;;;19.30;11.13;;;;;;;;;;5032283;28;20238;-85
2021/08/16 06:06:59;;;;;;;18.40;12.37;;;;;;;;;;5012335;28;20195;-85
2021/08/16 06:10:05;;;;;;;16.37;11.60;;;;;;;;;;5011339;28;20212;-86
2021/08/16 06:13:09;;;;;;;18.50;11.27;;;;;;;;;;5016650;28;20226;-86
2021/08/16 06:16:13;;;;;;;16.43;10.03;;;;;;;;;;5032206;28;20203;-85
2021/08/16 06:19:17;;;;;;;19.63;12.93;;;;;;;;;;5018572;28;20199;-85
2021/08/16 06:22:21;;;;;;;11.57;8.17;;;;;;;;;;5010375;28;20208;-85
2021/08/16 06:25:26;;;;;;;10.40;6.97;;;;;;;;;;5023561;28;20559;-85
2021/08/16 06:28:31;;;;;;;10.53;7.00;;;;;;;;;;5012571;28;20193;-87
2021/08/16 06:31:35;;;;;;;9.10;5.63;;;;;;;;;;5019338;28;20207;-85
2021/08/16 06:34:41;;;;;;;12.43;6.07;;;;;;;;;;5030188;28;20216;-85
2021/08/16 06:37:46;;;;;;;7.13;4.80;;;;;;;;;;5031732;28;20566;-85
2021/08/16 06:40:56;;;;;;;7.23;5.60;;;;;;;;;;5042267;28;20204;-85
2021/08/16 06:44:00;;;;;;;7.10;5.97;;;;;;;;;;5031740;28;20219;-85
2021/08/16 06:47:05;;;;;;;8.57;5.60;;;;;;;;;;5019857;28;20192;-85
2021/08/16 06:50:09;;;;;;;5.97;4.20;;;;;;;;;;5030031;28;20208;-85
2021/08/16 06:53:14;;;;;;;6.73;4.47;;;;;;;;;;5005674;28;20669;-85
2021/08/16 06:56:18;;;;;;;5.90;4.50;;;;;;;;;;5022959;28;20185;-85
2021/08/16 06:59:22;;;;;;;10.13;4.17;;;;;;;;;;5023213;28;20521;-85
2021/08/16 07:02:27;;;;;;;7.90;4.33;;;;;;;;;;4994663;28;20536;-85
2021/08/16 07:05:31;;;;;;;4.03;3.63;;;;;;;;;;5012568;28;20181;-85
2021/08/16 07:08:35;;;;;;;6.23;3.90;;;;;;;;;;5040946;28;20204;-85
2021/08/16 07:11:39;;;;;;;9.00;5.67;;;;;;;;;;5019130;28;20571;-85
2021/08/16 07:14:44;;;;;;;9.17;5.20;;;;;;;;;;5014183;28;20228;-85
2021/08/16 07:17:48;;;;;;;5.93;3.73;;;;;;;;;;5022567;28;20184;-85
2021/08/16 07:20:52;;;;;;;7.97;4.00;;;;;;;;;;5030726;28;20192;-85
2021/08/16 07:23:56;;;;;;;4.83;4.10;;;;;;;;;;5030350;28;20215;-85
2021/08/16 07:27:00;;;;;;;5.63;3.63;;;;;;;;;;5019415;28;20200;-85
2021/08/16 07:30:05;;;;;;;5.13;4.00;;;;;;;;;;5036917;28;20212;-85
2021/08/16 07:33:09;;;;;;;6.73;3.90;;;;;;;;;;5030630;28;20686;-85
2021/08/16 07:36:13;;;;;;;7.80;4.43;;;;;;;;;;5030913;28;20184;-85
2021/08/16 07:39:17;;;;;;;5.77;3.90;;;;;;;;;;5030738;28;20180;-85
2021/08/16 07:42:23;;;;;;;5.77;4.40;;;;;;;;;;5042467;28;20188;-85
2021/08/16 07:45:28;;;;;;;6.27;4.63;;;;;;;;;;5041892;28;20635;-85
2021/08/16 07:48:31;;;;;;;7.80;4.77;;;;;;;;;;5030826;28;20627;-85
2021/08/16 07:51:36;;;;;;;8.97;3.90;;;;;;;;;;5026836;28;20208;-86
2021/08/16 07:54:40;;;;;;;7.53;4.57;;;;;;;;;;5011681;28;20221;-85
2021/08/16 07:57:44;;;;;;;6.43;5.00;;;;;;;;;;5040936;28;20191;-86
2021/08/16 08:00:48;;;;;;;5.87;5.00;;;;;;;;;;5033893;28;20191;-87
2021/08/16 08:03:52;;;;;;;6.03;4.73;;;;;;;;;;5016650;28;20223;-87
2021/08/16 08:06:56;;;;;;;8.83;5.23;;;;;;;;;;5030562;28;20175;-85
2021/08/16 08:10:01;;;;;;;8.30;5.43;;;;;;;;;;5014841;28;20199;-86
2021/08/16 08:13:06;;;;;;;8.17;5.20;;;;;;;;;;5015407;28;20220;-86
2021/08/16 08:16:10;;;;;;;11.73;4.97;;;;;;;;;;5022107;28;20185;-86
2021/08/16 08:19:13;;;;;;;7.00;4.20;;;;;;;;;;5041932;28;20206;-85
2021/08/16 08:22:18;;;;;;;10.17;4.77;;;;;;;;;;5026877;28;20176;-86
2021/08/16 08:25:22;;;;;;;11.20;5.30;;;;;;;;;;5030232;28;20190;-86
2021/08/16 08:28:26;;;;;;;9.50;5.53;;;;;;;;;;5020999;28;20662;-86
2021/08/16 08:31:30;;;;;;;8.67;5.17;;;;;;;;;;5021463;28;20207;-86
2021/08/16 08:34:35;;;;;;;9.07;5.53;;;;;;;;;;5010466;28;20216;-85
2021/08/16 08:37:39;;;;;;;9.07;6.27;;;;;;;;;;5022039;28;20199;-86
2021/08/16 08:40:44;;;;;;;10.70;6.57;;;;;;;;;;5025045;28;20638;-86
2021/08/16 08:43:49;;;;;;;10.63;3.53;;;;;;;;;;5026331;28;20230;-85
2021/08/16 08:46:53;;;;;;;7.30;2.10;;;;;;;;;;5026580;28;20218;-85
2021/08/16 08:49:57;;;;;;;3.20;1.67;;;;;;;;;;5007490;28;20193;-85
2021/08/16 08:53:03;;;;;;;4.23;1.80;;;;;;;;;;5015780;28;20548;-84
2021/08/16 08:56:09;;;;;;;4.17;1.70;;;;;;;;;;5018914;28;20512;-84
2021/08/16 08:59:14;;;;;;;5.67;2.50;;;;;;;;;;5030204;28;20199;-85
2021/08/16 09:02:20;;;;;;;4.70;2.97;;;;;;;;;;5032717;28;20184;-85
2021/08/16 09:05:25;;;;;;;6.33;3.63;;;;;;;;;;5050850;23;20223;-84
2021/08/16 09:08:34;;;;;;;6.80;4.20;;;;;;;;;;5064253;28;20184;-83
2021/08/16 09:11:42;;;;;;;7.03;4.23;;;;;;;;;;5041892;28;20203;-83
2021/08/16 09:14:46;;;;;;;7.07;4.40;;;;;;;;;;5026031;28;20216;-82
2021/08/16 09:17:52;;;;;;;6.13;4.97;;;;;;;;;;5033743;28;20199;-83
2021/08/16 09:20:56;;;;;;;6.17;4.37;;;;;;;;;;5033508;28;20200;-83
2021/08/16 09:24:02;;;;;;;5.90;4.73;;;;;;;;;;5044946;28;20220;-83
2021/08/16 09:27:10;;;;;;;7.93;5.47;;;;;;;;;;5028227;28;20191;-80
2021/08/16 09:30:16;;;;;;;6.97;5.07;;;;;;;;;;5041845;28;20192;-81
2021/08/16 09:33:22;;;;;;;5.77;4.60;;;;;;;;;;5051297;28;20650;-81
2021/08/16 09:36:40;;;;;;;5.70;4.87;;;;;;;;;;5029852;28;20527;-83
2021/08/16 09:39:44;;;;;;;6.23;3.70;;;;;;;;;;5039349;28;20683;-83
2021/08/16 09:42:54;;;;;;;8.37;5.33;;;;;;;;;;5036751;28;20192;-84
2021/08/16 09:46:00;;;;;;;8.83;6.33;;;;;;;;;;5058035;28;20202;-84
2021/08/16 09:49:05;;;;;;;5.88;4.80;;;;;;;;;;5044826;28;20181;-84
2021/08/16 09:52:11;;;;;;;8.00;5.35;;;;;;;;;;5044461;28;20218;-83
2021/08/16 09:55:15;;;;;;;6.18;5.13;;;;;;;;;;5021241;28;20221;-83
2021/08/16 09:58:20;;;;;;;8.70;5.80;;;;;;;;;;5044282;28;20630;-83
2021/08/16 10:01:24;;;;;;;9.23;6.60;;;;;;;;;;5034850;28;20318;-83
2021/08/16 10:04:32;;;;;;;8.90;6.38;;;;;;;;;;5064028;28;20702;-83
2021/08/16 10:07:36;;;;;;;9.38;5.95;;;;;;;;;;5065597;28;20199;-83
2021/08/16 10:10:42;;;;;;;8.57;6.43;;;;;;;;;;5030303;28;20189;-82
2021/08/16 10:13:51;;;;;;;9.10;6.38;;;;;;;;;;5051004;28;20219;-82
2021/08/16 10:16:57;;;;;;;6.85;6.13;;;;;;;;;;5037655;28;20665;-85
2021/08/16 10:20:01;;;;;;;9.68;6.38;;;;;;;;;;5040825;28;20533;-84
2021/08/16 10:23:22;;;;;;;8.45;6.55;;;;;;;;;;5052236;28;20197;-84
2021/08/16 10:26:34;;;;;;;7.80;7.00;;;;;;;;;;5034386;28;20192;-84
2021/08/16 10:29:40;;;;;;;10.75;6.53;;;;;;;;;;5032411;28;20201;-84
2021/08/16 10:32:44;;;;;;;9.43;7.10;;;;;;;;;;5039979;28;20200;-83
2021/08/16 10:35:49;;;;;;;9.07;6.73;;;;;;;;;;5020827;28;20656;-83
2021/08/16 10:38:56;;;;;;;9.93;6.73;;;;;;;;;;5031853;28;20189;-83
2021/08/16 10:42:12;;;;;;;7.17;5.83;;;;;;;;;;5022730;28;20185;-83
2021/08/16 10:45:31;;;;;;;11.87;6.13;;;;;;;;;;5040371;28;20227;-83
2021/08/16 10:48:35;;;;;;;8.93;6.70;;;;;;;;;;5039462;28;20620;-83
2021/08/16 10:51:45;;;;;;;11.83;6.37;;;;;;;;;;5030007;28;20225;-84
2021/08/16 10:54:49;;;;;;;10.73;6.30;;;;;;;;;;5028843;28;20253;-84
2021/08/16 10:57:54;;;;;;;10.97;6.00;;;;;;;;;;5039453;28;20191;-84
2021/08/16 11:00:57;;;;;;;11.40;5.97;;;;;;;;;;5030459;28;20201;-85
2021/08/16 11:04:04;;;;;;;7.30;5.87;;;;;;;;;;5021704;28;20247;-82
2021/08/16 11:07:09;;;;;;;8.80;6.13;;;;;;;;;;5035651;28;20187;-82
2021/08/16 11:10:13;;;;;;;8.63;6.27;;;;;;;;;;5058856;28;20197;-83
2021/08/16 11:13:21;;;;;;;7.37;5.63;;;;;;;;;;5038547;28;20187;-83
2021/08/16 11:16:25;;;;;;;8.63;6.27;;;;;;;;;;5037099;28;20197;-82
2021/08/16 11:19:46;;;;;;;9.00;5.70;;;;;;;;;;5032494;28;20193;-83
2021/08/16 11:22:54;;;;;;;6.00;5.40;;;;;;;;;;5020642;28;20177;-83
2021/08/16 11:25:58;;;;;;;8.43;5.10;;;;;;;;;;5041878;28;20204;-83
2021/08/16 11:29:04;;;;;;;7.27;5.50;;;;;;;;;;5038278;28;20201;-84
2021/08/16 11:32:08;;;;;;;8.17;5.80;;;;;;;;;;5032979;28;20224;-84
2021/08/16 11:35:12;;;;;;;11.80;5.50;;;;;;;;;;5020060;28;20220;-84
2021/08/16 11:38:16;;;;;;;9.07;4.93;;;;;;;;;;5042747;28;20192;-84
2021/08/16 11:41:20;;;;;;;8.77;5.00;;;;;;;;;;5026213;28;20665;-84
2021/08/16 11:44:25;;;;;;;10.00;5.60;;;;;;;;;;5027768;28;20224;-84
2021/08/16 11:47:40;;;;;;;7.03;4.50;;;;;;;;;;5040513;28;20184;-84
2021/08/16 11:50:44;;;;;;;8.73;5.07;;;;;;;;;;5051242;28;20187;-84
2021/08/16 11:53:49;;;;;;;8.10;5.00;;;;;;;;;;5039262;28;20213;-84
2021/08/16 11:56:57;;;;;;;8.23;4.63;;;;;;;;;;5023669;28;20194;-84
2021/08/16 12:00:07;;;;;;;6.53;4.80;;;;;;;;;;5033923;28;20534;-84
2021/08/16 12:03:20;;;;;;;5.83;4.47;;;;;;;;;;5046152;28;20202;-84
2021/08/16 12:06:25;;;;;;;7.13;4.60;;;;;;;;;;5050878;28;20194;-84
2021/08/16 12:09:33;;;;;;;8.47;5.33;;;;;;;;;;5048224;28;20523;-84
2021/08/16 12:12:41;;;;;;;6.67;4.50;;;;;;;;;;5031630;28;20200;-86
2021/08/16 12:15:53;;;;;;;6.87;4.63;;;;;;;;;;5047180;28;20534;-86
2021/08/16 12:18:58;;;;;;;6.93;4.13;;;;;;;;;;5048582;28;20208;-86
2021/08/16 12:22:10;;;;;;;8.77;4.50;;;;;;;;;;5040251;28;20187;-86
2021/08/16 12:25:03;;;;;;;7.83;4.33;;;;;;;;;;5071333;28;20800;-74
2021/08/16 12:27:41;;;;;;;16.30;6.90;;;;;;;;;;5111145;27;21285;-75
2021/08/16 12:30:17;;;;;;;6.53;4.90;;;;;;;;;;5070461;28;22001;-72
2021/08/16 12:32:53;;;;;;;11.60;4.97;;;;;;;;;;5071254;28;21373;-74
2021/08/16 12:35:30;;;;;;;8.43;4.40;;;;;;;;;;5111865;27;20885;-74
2021/08/16 12:38:07;;;;;;;5.53;4.37;;;;;;;;;;5111317;27;20849;-74
2021/08/16 12:41:06;;;;;;;7.00;4.40;;;;;;;;;;5104273;27;20828;-74
2021/08/16 12:43:43;;;;;;;5.93;4.13;;;;;;;;;;5111015;27;21475;-74
2021/08/16 12:46:32;;;;;;;5.53;4.23;;;;;;;;;;5111272;27;20796;-74
2021/08/16 12:49:21;;;;;;;7.73;4.23;;;;;;;;;;5111767;27;20857;-74
2021/08/16 12:51:58;;;;;;;8.07;4.20;;;;;;;;;;5070528;28;20834;-74
2021/08/16 12:54:35;;;;;;;8.13;4.27;;;;;;;;;;5131928;27;20874;-74
2021/08/16 12:57:11;;;;;;;6.40;4.80;;;;;;;;;;5111974;27;21450;-74
2021/08/16 12:59:47;;;;;;;6.20;4.40;;;;;;;;;;5111516;27;21255;-74
2021/08/16 13:02:26;;;;;;;6.40;4.13;;;;;;;;;;5131631;27;20863;-73
2021/08/16 13:05:02;;;;;;;8.77;4.40;;;;;;;;;;5069907;28;20846;-74
2021/08/16 13:07:39;;;;;;;5.80;4.10;;;;;;;;;;5085441;28;20805;-74
2021/08/16 13:10:15;;;;;;;6.97;4.53;;;;;;;;;;5073285;28;21376;-74
2021/08/16 13:12:52;;;;;;;8.37;4.10;;;;;;;;;;5111541;27;20877;-74
2021/08/16 13:15:29;;;;;;;5.67;4.17;;;;;;;;;;5069999;28;20823;-72
2021/08/16 13:18:06;;;;;;;8.60;4.40;;;;;;;;;;5111892;27;20860;-74
2021/08/16 13:20:42;;;;;;;5.33;3.93;;;;;;;;;;5132376;27;20816;-74
2021/08/16 13:23:18;;;;;;;7.23;4.07;;;;;;;;;;5111017;27;20815;-74
2021/08/16 13:25:56;;;;;;;5.87;4.67;;;;;;;;;;5110835;27;21287;-74
2021/08/16 13:28:34;;;;;;;5.80;4.50;;;;;;;;;;5110785;27;20815;-74
2021/08/16 13:31:11;;;;;;;6.93;4.43;;;;;;;;;;5111260;27;20841;-74
2021/08/16 13:33:48;;;;;;;5.73;4.47;;;;;;;;;;5111101;27;20869;-74
2021/08/16 13:36:25;;;;;;;8.37;5.20;;;;;;;;;;5070355;28;20818;-74
2021/08/16 13:39:02;;;;;;;7.00;4.60;;;;;;;;;;5080415;28;21382;-74
2021/08/16 13:41:40;;;;;;;9.00;4.73;;;;;;;;;;5111907;27;20820;-74
2021/08/16 13:44:16;;;;;;;10.33;4.57;;;;;;;;;;5112236;27;20843;-74
2021/08/16 13:46:53;;;;;;;9.33;5.37;;;;;;;;;;5111936;27;20822;-74
2021/08/16 13:49:31;;;;;;;8.60;4.53;;;;;;;;;;5123037;27;20859;-74
2021/08/16 13:52:08;;;;;;;8.50;5.70;;;;;;;;;;5111222;27;21381;-74
2021/08/16 13:54:46;;;;;;;7.70;5.10;;;;;;;;;;5110389;27;20837;-75
2021/08/16 13:57:22;;;;;;;9.00;4.87;;;;;;;;;;5070255;28;20830;-74
2021/08/16 13:59:59;;;;;;;8.53;4.93;;;;;;;;;;5132242;27;20820;-74
2021/08/16 14:02:36;;;;;;;7.77;5.00;;;;;;;;;;5049976;28;21418;-74
2021/08/16 14:05:12;;;;;;;8.30;4.83;;;;;;;;;;5111442;27;20807;-74
2021/08/16 14:07:49;;;;;;;7.50;4.67;;;;;;;;;;5011096;28;20814;-74
2021/08/16 14:10:25;;;;;;;10.67;6.10;;;;;;;;;;5109665;27;21301;-74
2021/08/16 14:13:02;;;;;;;7.07;5.00;;;;;;;;;;5111481;27;20796;-74
2021/08/16 14:15:39;;;;;;;7.23;4.80;;;;;;;;;;5117920;27;20840;-73
2021/08/16 14:18:18;;;;;;;7.17;4.80;;;;;;;;;;5103127;27;20837;-74
2021/08/16 14:20:55;;;;;;;9.93;5.00;;;;;;;;;;5105880;27;20821;-73
2021/08/16 14:23:32;;;;;;;8.40;5.00;;;;;;;;;;5070235;28;21411;-74
2021/08/16 14:26:12;;;;;;;8.03;4.90;;;;;;;;;;5111151;27;20815;-73
2021/08/16 14:28:49;;;;;;;7.60;4.60;;;;;;;;;;5110788;27;21270;-73
2021/08/16 14:31:30;;;;;;;9.83;5.17;;;;;;;;;;5111039;27;20888;-73
2021/08/16 14:34:08;;;;;;;6.97;4.53;;;;;;;;;;5110920;27;20808;-74
2021/08/16 14:36:45;;;;;;;7.23;4.17;;;;;;;;;;5043359;27;1330197;-73
2021/08/16 14:39:21;;;;;;;8.37;4.93;;;;;;;;;;5111576;27;20796;-72
2021/08/16 14:41:59;;;;;;;8.03;4.67;;;;;;;;;;5071264;28;21249;-73
2021/08/16 14:44:36;;;;;;;9.07;4.47;;;;;;;;;;5111798;27;20829;-74
2021/08/16 14:47:12;;;;;;;7.90;5.00;;;;;;;;;;5065881;28;20830;-74
2021/08/16 14:49:49;;;;;;;9.23;5.47;;;;;;;;;;5107146;27;21385;-74
2021/08/16 14:52:25;;;;;;;8.60;5.30;;;;;;;;;;5066635;28;21724;-74
2021/08/16 14:55:04;;;;;;;8.13;5.03;;;;;;;;;;5107324;27;20846;-74
2021/08/16 14:57:40;;;;;;;9.73;5.37;;;;;;;;;;5067161;28;20815;-75
2021/08/16 15:00:17;;;;;;;8.13;4.90;;;;;;;;;;5107181;27;21479;-75
2021/08/16 15:02:55;;;;;;;11.30;5.57;;;;;;;;;;5067010;28;21281;-75
2021/08/16 15:05:33;;;;;;;7.40;4.60;;;;;;;;;;5067037;28;21525;-74
2021/08/16 15:08:10;;;;;;;7.70;5.60;;;;;;;;;;5107825;27;20815;-75
2021/08/16 15:10:47;;;;;;;8.33;5.50;;;;;;;;;;5104964;27;20867;-75
2021/08/16 15:13:23;;;;;;;9.57;5.67;;;;;;;;;;5107565;27;21408;-75
2021/08/16 15:16:04;;;;;;;9.60;5.53;;;;;;;;;;5107613;27;20872;-75
2021/08/16 15:18:41;;;;;;;7.73;5.10;;;;;;;;;;5110487;27;20816;-74
2021/08/16 15:21:18;;;;;;;9.07;5.67;;;;;;;;;;4794651;27;7333502;-72
2021/08/16 15:23:56;;;;;;;9.70;5.30;;;;;;;;;;5111885;27;20818;-74
2021/08/16 15:26:33;;;;;;;11.07;5.30;;;;;;;;;;5111865;27;21260;-74
2021/08/16 15:29:17;;;;;;;7.67;5.37;;;;;;;;;;5111613;27;20817;-74
2021/08/16 15:31:54;;;;;;;7.00;4.77;;;;;;;;;;5111932;27;20807;-74
2021/08/16 15:34:32;;;;;;;8.00;4.77;;;;;;;;;;5071328;28;20811;-74
2021/08/16 15:37:09;;;;;;;7.50;4.70;;;;;;;;;;5111888;27;20814;-74
2021/08/16 15:39:45;;;;;;;8.87;4.50;;;;;;;;;;5070806;28;20799;-74
2021/08/16 15:42:22;;;;;;;5.67;3.80;;;;;;;;;;5111062;27;20804;-74
2021/08/16 15:45:02;;;;;;;7.00;3.53;;;;;;;;;;5071119;28;21261;-74
2021/08/16 15:47:38;;;;;;;10.97;3.97;;;;;;;;;;5111882;27;20792;-74
2021/08/16 15:50:15;;;;;;;6.77;4.20;;;;;;;;;;5071272;28;21245;-74
2021/08/16 15:52:51;;;;;;;8.33;3.80;;;;;;;;;;5132408;27;20794;-74
2021/08/16 15:55:28;;;;;;;7.10;3.70;;;;;;;;;;5071331;28;21217;-74
2021/08/16 15:58:05;;;;;;;6.57;3.53;;;;;;;;;;5111858;27;20796;-73
2021/08/16 16:00:44;;;;;;;6.73;4.00;;;;;;;;;;5111373;27;20877;-74
2021/08/16 16:03:21;;;;;;;9.10;3.80;;;;;;;;;;5071288;28;21229;-72
2021/08/16 16:05:59;;;;;;;4.47;3.30;;;;;;;;;;5111858;27;21361;-75
2021/08/16 16:08:36;;;;;;;7.30;3.73;;;;;;;;;;5111854;27;20842;-74
2021/08/16 16:11:12;;;;;;;6.77;3.47;;;;;;;;;;5111055;27;20804;-74
2021/08/16 16:13:49;;;;;;;8.03;4.20;;;;;;;;;;5111898;27;20800;-74
2021/08/16 16:16:30;;;;;;;5.33;3.67;;;;;;;;;;5111227;27;20829;-74
2021/08/16 16:19:06;;;;;;;8.07;3.83;;;;;;;;;;5111932;27;20825;-74
2021/08/16 16:21:43;;;;;;;6.77;3.43;;;;;;;;;;5111913;27;20819;-74
2021/08/16 16:24:20;;;;;;;7.13;4.13;;;;;;;;;;5111145;27;21277;-74
2021/08/16 16:26:57;;;;;;;11.07;4.10;;;;;;;;;;5111892;27;20830;-74
2021/08/16 16:29:34;;;;;;;11.53;4.00;;;;;;;;;;5111914;27;20818;-74
2021/08/16 16:32:10;;;;;;;5.50;3.63;;;;;;;;;;5111879;27;20849;-74
2021/08/16 16:34:47;;;;;;;8.70;3.77;;;;;;;;;;5071392;28;20794;-74
2021/08/16 16:37:23;;;;;;;6.70;3.90;;;;;;;;;;5111920;27;21190;-74
2021/08/16 16:40:00;;;;;;;6.27;3.70;;;;;;;;;;5071067;28;20791;-74
2021/08/16 16:42:37;;;;;;;11.30;4.60;;;;;;;;;;5112198;27;21377;-74
2021/08/16 16:45:15;;;;;;;9.10;3.97;;;;;;;;;;5071456;28;21268;-74
2021/08/16 16:47:52;;;;;;;8.00;3.80;;;;;;;;;;5068379;27;21225;-74
2021/08/16 16:50:28;;;;;;;5.90;3.60;;;;;;;;;;5112085;27;20784;-74
2021/08/16 16:53:05;;;;;;;6.90;3.50;;;;;;;;;;5071628;28;20799;-74
2021/08/16 16:55:41;;;;;;;8.00;4.20;;;;;;;;;;5071663;28;20803;-74
2021/08/16 16:58:19;;;;;;;8.10;3.80;;;;;;;;;;5112203;27;20833;-74
2021/08/16 17:00:56;;;;;;;11.23;3.87;;;;;;;;;;5111691;27;20853;-74
2021/08/16 17:03:33;;;;;;;9.33;4.17;;;;;;;;;;5071468;28;20787;-74
2021/08/16 17:06:09;;;;;;;9.37;3.83;;;;;;;;;;5174364;27;20820;-74
2021/08/16 17:08:46;;;;;;;8.50;3.83;;;;;;;;;;5111752;27;20825;-75
2021/08/16 17:11:22;;;;;;;12.67;5.47;;;;;;;;;;5071766;28;20815;-74
2021/08/16 17:13:59;;;;;;;7.07;5.60;;;;;;;;;;5112270;27;20826;-75
2021/08/16 17:16:36;;;;;;;11.33;5.00;;;;;;;;;;5112176;27;20788;-74
2021/08/16 17:19:13;;;;;;;9.10;5.17;;;;;;;;;;5112184;27;21460;-75
2021/08/16 17:21:49;;;;;;;8.70;4.40;;;;;;;;;;5111841;27;20833;-75
2021/08/16 17:24:26;;;;;;;11.20;6.30;;;;;;;;;;5071339;28;20798;-75
2021/08/16 17:27:02;;;;;;;9.77;5.80;;;;;;;;;;5132414;27;21224;-75